Avera, Georgia
Current Conditions -  °F | °C
As of 7:55 AM on Saturday 01 Nov 2014 (Local Time) from KOKZ Reporting Station
Overcast Overcast  
Wind Chill: 36°   Ceiling: 3700
Heat Index: 42°   Visibility: 10mi
Dew Point: 31°   Wind: 10mph
Humidity: 65%   Direction: 300°WNW
Pressure: 29.89"   Gusts: 22mph
Location:  33.19°N, 82.53°W
Report Text: KOKZ 011155Z AUTO 30009G19KT 260V330 10SM BKN037 OVC043 06/M01 A2989 RMK AO2 T00551007 10083 20040
Loading
Personal Weather Stations






























Interactive Weather Map
Tropical Storm Tracking
New forecast layout! Learn more

10-Day Weather Forecast

Advertisements
Track Severe Weather on mobile